Time;durP1;ratioP1;P1;durP2;ratioP2;P2;SDS_P1;SDS_P2;PMS_P1;PMS_P2;Temp;Humidity;BMP_temperature;BMP_pressure;BME280_temperature;BME280_humidity;BME280_pressure;Samples;Min_cycle;Max_cycle;Signal;HPM_P1;HPM_P2
2022/09/15 00:00:36;;;;;;;91.10;26.00;;;;;;;12.14;100.00;100454.38;1993879;28;20107;-78
2022/09/15 00:01:33;;;;;;;85.85;25.60;;;;;;;12.17;100.00;100457.66;1993798;28;20040;-77
2022/09/15 00:02:30;;;;;;;79.85;25.85;;;;;;;12.16;100.00;100455.13;1993796;28;20028;-78
2022/09/15 00:03:28;;;;;;;76.30;25.40;;;;;;;12.14;100.00;100454.38;1993920;28;20075;-77
2022/09/15 00:04:25;;;;;;;87.22;26.17;;;;;;;12.10;100.00;100449.31;1994351;28;20424;-77
2022/09/15 00:05:23;;;;;;;84.03;25.48;;;;;;;12.06;100.00;100455.63;1994021;28;20063;-78
2022/09/15 00:06:20;;;;;;;74.95;26.17;;;;;;;12.02;100.00;100451.47;1993655;28;20358;-77
2022/09/15 00:07:19;;;;;;;81.63;25.88;;;;;;;12.05;100.00;100451.28;1985377;28;20108;-78
2022/09/15 00:08:16;;;;;;;88.05;25.20;;;;;;;12.04;100.00;100452.22;1985293;28;20040;-76
2022/09/15 00:09:14;;;;;;;79.93;26.30;;;;;;;11.97;100.00;100453.47;1993043;28;20036;-77
2022/09/15 00:10:12;;;;;;;84.15;25.63;;;;;;;12.00;100.00;100449.88;1993682;28;20348;-76
2022/09/15 00:11:16;;;;;;;93.78;26.08;;;;;;;12.00;100.00;100458.53;1993662;28;20443;-77
2022/09/15 00:12:13;;;;;;;79.43;25.92;;;;;;;11.96;100.00;100454.41;1993718;28;20029;-78
2022/09/15 00:13:11;;;;;;;79.95;25.63;;;;;;;11.97;100.00;100453.47;1993820;28;20033;-77
2022/09/15 00:14:08;;;;;;;88.35;26.88;;;;;;;11.98;100.00;100449.97;1993601;28;20055;-77
2022/09/15 00:15:07;;;;;;;73.30;25.50;;;;;;;11.97;100.00;100453.47;1985755;28;20040;-77
2022/09/15 00:16:06;;;;;;;76.22;25.30;;;;;;;11.97;100.00;100458.72;1985848;28;20037;-77
2022/09/15 00:17:03;;;;;;;73.35;24.67;;;;;;;11.97;100.00;100451.72;1993219;28;20462;-78
2022/09/15 00:18:00;;;;;;;81.72;25.33;;;;;;;11.97;100.00;100458.72;1993637;28;20032;-76
2022/09/15 00:18:59;;;;;;;81.95;24.90;;;;;;;11.97;100.00;100461.31;1985907;28;20064;-77
2022/09/15 00:19:57;;;;;;;77.82;24.95;;;;;;;11.95;100.00;100455.34;1985652;28;20048;-77
2022/09/15 00:20:54;;;;;;;74.47;24.77;;;;;;;11.94;100.00;100453.66;1993042;28;20360;-78
2022/09/15 00:21:52;;;;;;;66.30;23.75;;;;;;;11.91;100.00;100454.66;1985362;28;20029;-77
2022/09/15 00:22:49;;;;;;;83.65;25.35;;;;;;;11.89;100.00;100455.66;1985344;28;20036;-77
2022/09/15 00:23:48;;;;;;;75.47;25.17;;;;;;;11.87;100.00;100447.09;1992733;28;20074;-77
2022/09/15 00:24:48;;;;;;;74.95;26.13;;;;;;;11.85;100.00;100453.22;1993565;28;20125;-78
2022/09/15 00:25:51;;;;;;;73.28;25.20;;;;;;;11.86;100.00;100451.47;1993665;28;20416;-78
2022/09/15 00:26:49;;;;;;;72.85;25.27;;;;;;;11.79;100.00;100450.94;1985219;28;20063;-78
2022/09/15 00:27:46;;;;;;;65.10;24.67;;;;;;;11.84;100.00;100453.31;1985403;28;20073;-77
2022/09/15 00:28:44;;;;;;;72.78;23.95;;;;;;;11.83;100.00;100451.63;1992692;28;20352;-78
2022/09/15 00:29:42;;;;;;;75.68;25.17;;;;;;;11.82;100.00;100450.78;1993505;28;20428;-78
2022/09/15 00:30:45;;;;;;;76.65;24.75;;;;;;;11.82;100.00;100445.56;1993558;28;20050;-78
2022/09/15 00:31:43;;;;;;;67.70;23.83;;;;;;;11.81;100.00;100443.84;1993475;28;20040;-78
2022/09/15 00:32:40;;;;;;;70.78;24.63;;;;;;;11.82;100.00;100442.09;1993560;28;20472;-78
2022/09/15 00:33:38;;;;;;;77.35;24.67;;;;;;;11.80;100.00;100443.97;1985029;28;20353;-77
2022/09/15 00:34:35;;;;;;;71.55;24.55;;;;;;;11.80;100.00;100444.78;1985245;28;20468;-79
2022/09/15 00:35:42;;;;;;;77.10;24.65;;;;;;;11.78;100.00;100443.19;1992757;28;20425;-78
2022/09/15 00:36:39;;;;;;;72.70;24.83;;;;;;;11.77;100.00;100447.56;1993664;28;20040;-77
2022/09/15 00:37:37;;;;;;;65.55;23.50;;;;;;;11.78;100.00;100438.81;1993506;28;20028;-78
2022/09/15 00:38:36;;;;;;;75.22;25.95;;;;;;;11.77;100.00;100441.50;1993536;28;20048;-78
2022/09/15 00:39:33;;;;;;;75.68;24.88;;;;;;;11.78;100.00;100440.56;1993466;28;20040;-78
2022/09/15 00:40:31;;;;;;;74.93;24.98;;;;;;;11.77;100.00;100437.09;1993635;28;20116;-78
2022/09/15 00:41:29;;;;;;;74.85;24.88;;;;;;;11.76;100.00;100432.81;1993605;28;20077;-77
2022/09/15 00:42:26;;;;;;;79.55;25.45;;;;;;;11.77;100.00;100434.50;1993378;28;20025;-78
2022/09/15 00:43:56;;;;;;;74.55;24.77;;;;;;;11.74;100.00;100439.91;1993551;28;20467;-78
2022/09/15 00:45:02;;;;;;;73.05;24.00;;;;;;;11.75;100.00;100438.13;1993344;28;20053;-78
2022/09/15 00:46:00;;;;;;;71.57;24.17;;;;;;;11.75;100.00;100438.13;1993353;28;20029;-78
2022/09/15 00:46:57;;;;;;;73.63;23.95;;;;;;;11.80;100.00;100439.56;1993369;28;20032;-78
2022/09/15 00:47:55;;;;;;;74.28;24.55;;;;;;;11.78;100.00;100444.03;1993399;28;20090;-79
2022/09/15 00:49:17;;;;;;;75.57;25.40;;;;;;;11.78;100.00;100440.56;1993478;28;20111;-78
2022/09/15 00:50:19;;;;;;;67.32;23.65;;;;;;;11.81;100.00;100443.84;1993383;28;20035;-78
2022/09/15 00:51:25;;;;;;;74.38;25.15;;;;;;;11.86;100.00;100441.00;1993587;28;20173;-79
2022/09/15 00:52:44;;;;;;;70.72;24.30;;;;;;;11.87;100.00;100445.28;1993368;28;20029;-77
2022/09/15 00:53:45;;;;;;;74.57;25.40;;;;;;;11.89;100.00;100445.22;1993445;28;20029;-77
2022/09/15 00:55:01;;;;;;;76.88;26.25;;;;;;;11.93;100.00;100441.50;1993272;28;20056;-78
2022/09/15 00:56:02;;;;;;;75.68;26.15;;;;;;;11.93;100.00;100442.34;1993495;28;20036;-77
2022/09/15 00:57:09;;;;;;;74.68;26.27;;;;;;;11.97;100.00;100440.41;1984955;28;20147;-77
2022/09/15 00:58:18;;;;;;;82.07;26.77;;;;;;;11.98;100.00;100436.88;1985609;28;20378;-78
2022/09/15 00:59:22;;;;;;;84.40;26.23;;;;;;;11.95;100.00;100437.88;1993419;28;20159;-77
2022/09/15 01:00:23;;;;;;;73.45;26.50;;;;;;;11.99;100.00;100446.41;1993328;28;20059;-77
2022/09/15 01:01:26;;;;;;;71.82;26.00;;;;;;;11.97;100.00;100443.03;1984832;28;20044;-78
2022/09/15 01:02:29;;;;;;;74.25;26.80;;;;;;;11.98;100.00;100442.13;1985142;28;20142;-78
2022/09/15 01:03:32;;;;;;;79.88;27.95;;;;;;;12.00;100.00;100437.63;1984950;28;20488;-78
2022/09/15 01:04:29;;;;;;;79.40;27.13;;;;;;;12.00;100.00;100442.84;1984970;28;20447;-76
2022/09/15 01:05:38;;;;;;;76.65;26.95;;;;;;;12.01;100.00;100439.31;1993269;28;20090;-77
2022/09/15 01:06:42;;;;;;;74.97;27.75;;;;;;;11.93;100.00;100442.34;1993097;28;20040;-78
2022/09/15 01:07:53;;;;;;;70.10;26.52;;;;;;;11.98;100.00;100440.31;1993451;28;20039;-77
2022/09/15 01:09:09;;;;;;;84.78;29.05;;;;;;;11.99;100.00;100443.78;1993330;28;20033;-77
2022/09/15 01:10:25;;;;;;;74.10;27.70;;;;;;;11.93;100.00;100451.97;1993418;28;20467;-77
2022/09/15 01:11:23;;;;;;;79.95;26.60;;;;;;;11.98;100.00;100439.50;1993263;28;20028;-78
2022/09/15 01:12:22;;;;;;;73.00;27.58;;;;;;;12.00;100.00;100442.84;1993305;28;20028;-78
2022/09/15 01:13:20;;;;;;;75.55;29.15;;;;;;;11.97;100.00;100437.78;1993095;28;20068;-78
2022/09/15 01:14:17;;;;;;;75.75;27.42;;;;;;;12.01;100.00;100439.31;1984954;28;20029;-77
2022/09/15 01:15:15;;;;;;;78.45;27.58;;;;;;;12.02;100.00;100438.41;1984777;28;20425;-77
2022/09/15 01:16:25;;;;;;;75.25;28.10;;;;;;;12.06;100.00;100437.34;1992360;28;20470;-77
2022/09/15 01:18:08;;;;;;;80.43;27.60;;;;;;;12.02;100.00;100438.41;1993116;28;20091;-77
2022/09/15 01:19:14;;;;;;;74.47;27.63;;;;;;;12.02;100.00;100437.53;1993213;28;20348;-76
2022/09/15 01:20:35;;;;;;;69.53;26.58;;;;;;;12.03;100.00;100434.84;1993196;28;20360;-77
2022/09/15 01:21:55;;;;;;;77.35;26.92;;;;;;;12.03;100.00;100434.00;1992890;28;20032;-78
2022/09/15 01:23:28;;;;;;;76.35;27.48;;;;;;;12.00;100.00;100442.03;1993225;28;20029;-77
2022/09/15 01:24:48;;;;;;;71.95;26.92;;;;;;;11.95;100.00;100439.66;1993277;28;20060;-77
2022/09/15 01:26:04;;;;;;;;;;;;;;;11.95;100.00;100437.03;1993801;28;20029;-77
2022/09/15 01:27:27;;;;;;;74.47;26.52;;;;;;;11.97;100.00;100443.88;1993252;28;19970;-77
2022/09/15 01:29:23;;;;;;;68.90;25.85;;;;;;;12.00;100.00;100445.47;1993307;28;20741;-77
2022/09/15 01:30:23;;;;;;;71.60;27.40;;;;;;;12.04;100.00;100438.31;1993136;28;20037;-79
2022/09/15 01:31:33;;;;;;;78.88;27.60;;;;;;;12.06;100.00;100439.94;1993150;28;20119;-77
2022/09/15 01:33:11;;;;;;;76.45;28.70;;;;;;;12.02;100.00;100437.53;1993114;28;20392;-78
2022/09/15 01:34:19;;;;;;;73.65;28.05;;;;;;;12.05;100.00;100440.00;1993220;28;20033;-77
2022/09/15 01:35:43;;;;;;;72.55;27.42;;;;;;;12.10;100.00;100438.00;1993308;28;20097;-78
2022/09/15 01:37:15;;;;;;;72.22;26.98;;;;;;;12.07;100.00;100438.16;1993086;28;20045;-77
2022/09/15 01:38:35;;;;;;;71.88;26.67;;;;;;;12.08;100.00;100440.69;1993134;28;20028;-77
2022/09/15 01:39:40;;;;;;;72.90;27.52;;;;;;;12.12;100.00;100436.16;1993460;28;20050;-78
2022/09/15 01:40:58;;;;;;;68.68;27.20;;;;;;;12.13;100.00;100442.22;1993215;28;20120;-77
2022/09/15 01:42:03;;;;;;;71.78;28.17;;;;;;;12.17;100.00;100438.50;1993216;28;20059;-77
2022/09/15 01:43:03;;;;;;;69.38;27.85;;;;;;;12.19;100.00;100441.88;1984781;28;20040;-78
2022/09/15 01:44:07;;;;;;;69.43;28.05;;;;;;;12.19;100.00;100440.13;1984943;28;20063;-78
2022/09/15 01:45:22;;;;;;;66.68;27.90;;;;;;;12.21;100.00;100445.22;1993303;28;20097;-79
2022/09/15 01:46:24;;;;;;;64.72;27.27;;;;;;;12.22;100.00;100441.72;1984498;28;20526;-79
2022/09/15 01:47:23;;;;;;;70.88;28.50;;;;;;;12.24;100.00;100447.69;1985010;28;20037;-78
2022/09/15 01:48:26;;;;;;;65.40;27.08;;;;;;;12.24;100.00;100439.84;1993153;28;20029;-78
2022/09/15 01:49:30;;;;;;;62.17;26.48;;;;;;;12.25;100.00;100443.31;1993516;28;20181;-78
2022/09/15 01:50:42;;;;;;;66.78;26.98;;;;;;;12.24;100.00;100445.06;1993600;28;20039;-79
2022/09/15 01:51:43;;;;;;;62.53;26.27;;;;;;;12.25;100.00;100443.31;1984924;28;20338;-77
2022/09/15 01:52:48;;;;;;;65.55;26.70;;;;;;;12.24;100.00;100439.84;1976872;28;20091;-77
2022/09/15 01:53:47;;;;;;;57.75;25.83;;;;;;;12.25;100.00;100445.94;1985044;28;20031;-78
2022/09/15 01:54:49;;;;;;;64.18;26.92;;;;;;;12.25;100.00;100445.94;1993103;28;20314;-77
2022/09/15 01:55:59;;;;;;;62.50;26.17;;;;;;;12.20;100.00;100439.19;1993251;28;20056;-78
2022/09/15 01:56:56;;;;;;;66.88;26.42;;;;;;;12.20;100.00;100449.66;1993721;28;20044;-77
2022/09/15 01:57:54;;;;;;;56.97;26.08;;;;;;;12.19;100.00;100445.34;1993265;28;20106;-78
2022/09/15 01:58:52;;;;;;;61.38;26.30;;;;;;;12.18;100.00;100441.03;1992900;28;20056;-77
2022/09/15 01:59:53;;;;;;;61.58;26.50;;;;;;;12.18;100.00;100448.06;1984817;28;20123;-77
2022/09/15 02:01:14;;;;;;;55.83;26.02;;;;;;;12.16;100.00;100448.13;1984683;28;20642;-78
2022/09/15 02:02:19;;;;;;;;;;;;;;;12.01;100.00;100436.69;1993561;28;20037;-78
2022/09/15 02:03:38;;;;;;;55.60;23.42;;;;;;;12.01;100.00;100448.94;1993167;28;19912;-78
2022/09/15 02:04:56;;;;;;;59.08;24.02;;;;;;;12.00;100.00;100440.25;1993059;28;20043;-77
2022/09/15 02:06:06;;;;;;;59.33;24.70;;;;;;;12.00;100.00;100442.03;1993095;28;20516;-77
2022/09/15 02:07:20;;;;;;;58.00;25.42;;;;;;;11.99;100.00;100441.19;1993038;28;20021;-78
2022/09/15 02:08:43;;;;;;;55.80;24.58;;;;;;;11.96;100.00;100441.34;1993040;28;20030;-78
2022/09/15 02:09:59;;;;;;;63.25;24.63;;;;;;;11.95;100.00;100439.66;1993000;28;20028;-78
2022/09/15 02:11:11;;;;;;;52.40;24.95;;;;;;;11.93;100.00;100438.88;1993228;28;20115;-77
2022/09/15 02:12:27;;;;;;;58.85;26.25;;;;;;;11.92;100.00;100442.44;1984458;28;20456;-77
2022/09/15 02:13:44;;;;;;;57.78;25.60;;;;;;;11.88;100.00;100443.53;1986314;28;20041;-77
2022/09/15 02:15:10;;;;;;;57.30;24.23;;;;;;;11.89;100.00;100437.38;1993110;28;20125;-77
2022/09/15 02:16:18;;;;;;;57.97;25.27;;;;;;;11.87;100.00;100441.84;1992867;28;20066;-77
2022/09/15 02:17:19;;;;;;;57.22;25.77;;;;;;;11.85;100.00;100442.75;1993153;28;20074;-78
2022/09/15 02:18:34;;;;;;;63.38;26.38;;;;;;;11.88;100.00;100439.16;1993095;28;20028;-78
2022/09/15 02:19:44;;;;;;;61.83;26.88;;;;;;;11.84;100.00;100433.22;1984696;28;20043;-77
2022/09/15 02:20:56;;;;;;;64.32;27.20;;;;;;;11.85;100.00;100440.16;1985703;28;20345;-78
2022/09/15 02:22:11;;;;;;;66.80;26.75;;;;;;;11.88;100.00;100439.16;1993001;28;20089;-77
2022/09/15 02:23:18;;;;;;;56.90;25.23;;;;;;;11.91;100.00;100440.75;1984769;28;20041;-77
2022/09/15 02:24:24;;;;;;;64.13;27.17;;;;;;;11.91;100.00;100432.91;1985930;28;20351;-78
2022/09/15 02:25:31;;;;;;;57.88;26.80;;;;;;;11.91;100.00;100435.53;1993168;28;20119;-78
2022/09/15 02:26:34;;;;;;;67.63;27.65;;;;;;;11.93;100.00;100436.28;1993082;28;20115;-77
2022/09/15 02:27:43;;;;;;;59.28;27.13;;;;;;;11.89;100.00;100433.00;1993192;28;20035;-78
2022/09/15 02:28:43;;;;;;;59.95;28.00;;;;;;;11.89;100.00;100429.53;1993018;28;20024;-78
2022/09/15 02:29:46;;;;;;;;;;;;;;;11.83;100.00;100431.56;1993509;28;20053;-79
2022/09/15 02:30:47;;;;;;;56.60;26.05;;;;;;;11.87;100.00;100431.41;1993121;28;19913;-78
2022/09/15 02:31:47;;;;;;;68.07;27.35;;;;;;;11.88;100.00;100430.47;1992926;28;20089;-78
2022/09/15 02:32:55;;;;;;;60.72;28.83;;;;;;;11.88;100.00;100427.84;1993072;28;20071;-77
2022/09/15 02:34:09;;;;;;;76.32;29.25;;;;;;;11.84;100.00;100427.19;1993492;28;20343;-77
2022/09/15 02:35:09;;;;;;;55.75;27.27;;;;;;;11.81;100.00;100433.41;1994497;28;20029;-78
2022/09/15 02:36:10;;;;;;;59.00;27.25;;;;;;;11.83;100.00;100431.56;1994437;28;20081;-77
2022/09/15 02:37:10;;;;;;;58.17;28.13;;;;;;;11.87;100.00;100427.00;1994326;28;20040;-77
2022/09/15 02:38:09;;;;;;;57.97;28.02;;;;;;;11.85;100.00;100424.47;1994382;28;20190;-76
2022/09/15 02:39:13;;;;;;;68.30;29.33;;;;;;;11.80;100.00;100425.66;1994410;28;20032;-78
2022/09/15 02:40:11;;;;;;;65.32;27.48;;;;;;;11.77;100.00;100426.66;1994335;28;20048;-78
2022/09/15 02:41:08;;;;;;;60.22;28.27;;;;;;;11.77;100.00;100421.41;1994325;28;20036;-78
2022/09/15 02:42:06;;;;;;;66.55;29.17;;;;;;;11.75;100.00;100422.44;1986074;28;20032;-77
2022/09/15 02:43:11;;;;;;;63.90;29.30;;;;;;;11.79;100.00;100434.41;1985904;28;20442;-77
2022/09/15 02:44:09;;;;;;;58.92;27.35;;;;;;;11.79;100.00;100432.66;1994637;28;20028;-77
2022/09/15 02:45:07;;;;;;;60.80;27.73;;;;;;;11.78;100.00;100436.19;1986288;28;20059;-77
2022/09/15 02:46:05;;;;;;;60.70;28.95;;;;;;;11.76;100.00;100431.97;1986031;28;20118;-77
2022/09/15 02:47:03;;;;;;;59.55;28.25;;;;;;;11.75;100.00;100433.75;1993646;28;20436;-78
2022/09/15 02:48:01;;;;;;;59.92;28.58;;;;;;;11.73;100.00;100432.97;1994337;28;20029;-80
2022/09/15 02:48:58;;;;;;;61.20;28.83;;;;;;;11.71;100.00;100432.22;1994327;28;20032;-76
2022/09/15 02:49:56;;;;;;;58.35;28.33;;;;;;;11.69;100.00;100436.69;1994212;28;20024;-77
2022/09/15 02:50:54;;;;;;;61.20;28.60;;;;;;;11.65;100.00;100432.53;1985798;28;20059;-76
2022/09/15 02:51:51;;;;;;;62.05;28.63;;;;;;;11.66;100.00;100435.06;1985941;28;20436;-78
2022/09/15 02:52:48;;;;;;;63.65;28.70;;;;;;;11.67;100.00;100435.94;1993376;28;20028;-78
2022/09/15 02:53:46;;;;;;;64.57;29.88;;;;;;;11.68;100.00;100437.63;1994280;28;20035;-78
2022/09/15 02:54:43;;;;;;;66.22;29.88;;;;;;;11.66;100.00;100434.22;1994389;28;20035;-78
2022/09/15 02:55:40;;;;;;;64.38;29.17;;;;;;;11.64;100.00;100436.94;1994121;28;20031;-77
2022/09/15 02:56:38;;;;;;;60.38;29.10;;;;;;;11.63;100.00;100434.41;1994338;28;20024;-77
2022/09/15 02:57:35;;;;;;;67.32;29.17;;;;;;;11.59;100.00;100434.56;1994209;28;20500;-78
2022/09/15 02:58:34;;;;;;;62.83;29.08;;;;;;;11.59;100.00;100439.78;1994381;28;20035;-77
2022/09/15 03:00:12;;;;;;;63.90;29.80;;;;;;;11.56;100.00;100439.94;1986135;28;20115;-77
2022/09/15 03:00:49;;;;;;;66.57;27.63;;;;;;;11.53;100.00;100442.72;1987876;28;20142;-77
2022/09/15 03:01:46;;;;;;;64.15;28.88;;;;;;;11.51;100.00;100447.19;1994489;28;20039;-78
2022/09/15 03:02:51;;;;;;;63.92;29.42;;;;;;;11.54;100.00;100446.19;1994273;28;20446;-77
2022/09/15 03:03:48;;;;;;;70.13;29.33;;;;;;;11.52;100.00;100448.03;1993890;28;20032;-77
2022/09/15 03:04:46;;;;;;;61.72;28.83;;;;;;;11.50;100.00;100444.66;1990839;28;20438;-77
2022/09/15 03:05:44;;;;;;;66.72;29.88;;;;;;;11.53;100.00;100442.72;1990124;28;20530;-78
2022/09/15 03:06:42;;;;;;;62.90;29.50;;;;;;;11.53;100.00;100450.56;1990101;28;20082;-78
2022/09/15 03:07:40;;;;;;;70.05;30.88;;;;;;;11.52;100.00;100450.63;1994064;28;20070;-77
2022/09/15 03:08:37;;;;;;;62.78;28.65;;;;;;;11.52;100.00;100451.50;1993722;28;20028;-77
2022/09/15 03:09:34;;;;;;;64.97;29.63;;;;;;;11.50;100.00;100450.72;1994160;28;20073;-77
2022/09/15 03:10:32;;;;;;;70.30;29.40;;;;;;;11.50;100.00;100455.94;1993609;28;20462;-79
2022/09/15 03:11:30;;;;;;;70.13;30.73;;;;;;;11.49;100.00;100449.03;1994111;28;20054;-77
2022/09/15 03:12:27;;;;;;;69.80;31.60;;;;;;;11.48;100.00;100446.50;1993456;28;20041;-77
2022/09/15 03:13:25;;;;;;;64.90;30.15;;;;;;;11.47;100.00;100450.91;1993970;28;20051;-77
2022/09/15 03:14:23;;;;;;;69.53;29.13;;;;;;;11.46;100.00;100457.03;1993570;28;20028;-76
2022/09/15 03:15:24;;;;;;;71.55;30.77;;;;;;;11.46;100.00;100455.28;1993516;28;20036;-77
2022/09/15 03:16:23;;;;;;;66.05;31.20;;;;;;;11.44;100.00;100449.31;1988481;28;20068;-77
2022/09/15 03:17:21;;;;;;;80.70;30.33;;;;;;;11.42;100.00;100451.13;1994235;28;20071;-77
2022/09/15 03:18:18;;;;;;;67.38;30.02;;;;;;;11.41;100.00;100452.06;1988132;28;20117;-78
2022/09/15 03:19:15;;;;;;;70.28;30.70;;;;;;;11.40;100.00;100454.75;1993707;28;20036;-76
2022/09/15 03:20:27;;;;;;;68.75;30.80;;;;;;;11.39;100.00;100455.69;1993644;28;20047;-77
2022/09/15 03:21:28;;;;;;;71.05;31.45;;;;;;;11.37;100.00;100454.91;1989006;28;20076;-78
2022/09/15 03:22:25;;;;;;;68.25;30.63;;;;;;;11.36;100.00;100458.44;1993077;28;20400;-77
2022/09/15 03:23:23;;;;;;;67.00;30.77;;;;;;;11.36;100.00;100448.81;1987284;28;20033;-78
2022/09/15 03:24:21;;;;;;;75.07;31.10;;;;;;;11.36;100.00;100458.44;1994211;28;20112;-77
2022/09/15 03:25:19;;;;;;;69.20;31.25;;;;;;;11.33;100.00;100459.47;1993576;28;20115;-77
2022/09/15 03:26:17;;;;;;;72.43;31.23;;;;;;;11.33;100.00;100460.28;1985619;28;20063;-77
2022/09/15 03:27:14;;;;;;;71.68;30.70;;;;;;;11.31;100.00;100459.53;1985173;28;20099;-77
2022/09/15 03:28:11;;;;;;;74.78;32.92;;;;;;;11.31;100.00;100462.16;1993116;28;20037;-77
2022/09/15 03:29:09;;;;;;;76.03;32.10;;;;;;;11.32;100.00;100463.81;1993491;28;20061;-77
2022/09/15 03:30:08;;;;;;;77.00;33.60;;;;;;;11.32;100.00;100462.97;1994420;28;20028;-77
2022/09/15 03:31:07;;;;;;;77.70;32.30;;;;;;;11.30;100.00;100455.22;1985424;28;20052;-77
2022/09/15 03:32:04;;;;;;;82.03;31.92;;;;;;;11.31;100.00;100456.06;1977711;28;20033;-78
2022/09/15 03:33:02;;;;;;;68.75;31.67;;;;;;;11.36;100.00;100461.06;1985148;28;20029;-77
2022/09/15 03:33:59;;;;;;;73.80;32.00;;;;;;;11.38;100.00;100462.66;1993052;28;20031;-78
2022/09/15 03:34:57;;;;;;;80.00;32.67;;;;;;;11.38;100.00;100461.81;1994107;28;20055;-77
2022/09/15 03:35:54;;;;;;;74.47;33.40;;;;;;;11.39;100.00;100459.13;1993687;28;20028;-78
2022/09/15 03:36:52;;;;;;;85.95;33.80;;;;;;;11.42;100.00;100464.19;1994034;28;20036;-78
2022/09/15 03:37:49;;;;;;;84.53;33.72;;;;;;;11.42;100.00;100463.34;1993787;28;20055;-78
2022/09/15 03:38:46;;;;;;;84.00;33.22;;;;;;;11.43;100.00;100465.06;1993872;28;20054;-77
2022/09/15 03:39:44;;;;;;;80.13;32.72;;;;;;;11.44;100.00;100457.13;1985324;28;20360;-77
2022/09/15 03:40:42;;;;;;;86.57;33.60;;;;;;;11.47;100.00;100461.34;1985726;28;20032;-77
2022/09/15 03:41:40;;;;;;;80.97;33.65;;;;;;;11.50;100.00;100465.56;1992990;28;20420;-77
2022/09/15 03:42:37;;;;;;;84.00;34.42;;;;;;;11.48;100.00;100473.47;1985646;28;20036;-77
2022/09/15 03:43:36;;;;;;;78.50;34.45;;;;;;;11.53;100.00;100468.03;1985512;28;20029;-77
2022/09/15 03:44:34;;;;;;;83.43;34.75;;;;;;;11.54;100.00;100467.09;1992994;28;20037;-78
2022/09/15 03:45:32;;;;;;;76.03;33.22;;;;;;;11.57;100.00;100470.38;1993574;28;20067;-77
2022/09/15 03:46:29;;;;;;;88.40;35.33;;;;;;;11.63;100.00;100468.38;1993693;28;20041;-77
2022/09/15 03:47:27;;;;;;;82.45;36.10;;;;;;;11.63;100.00;100471.00;1993830;28;20032;-79
2022/09/15 03:48:27;;;;;;;82.90;36.17;;;;;;;11.66;100.00;100460.34;1993830;28;20032;-77
2022/09/15 03:49:24;;;;;;;83.80;34.85;;;;;;;11.66;100.00;100468.19;1994319;28;20041;-78
2022/09/15 03:50:22;;;;;;;82.13;35.25;;;;;;;11.70;100.00;100459.28;1993927;28;20115;-77
2022/09/15 03:51:19;;;;;;;80.28;35.35;;;;;;;11.69;100.00;100465.44;1993773;28;20364;-77
2022/09/15 03:52:16;;;;;;;75.95;35.53;;;;;;;11.72;100.00;100460.03;1993841;28;20071;-77
2022/09/15 03:53:14;;;;;;;78.85;35.47;;;;;;;11.74;100.00;100460.81;1993922;28;20047;-77
2022/09/15 03:54:11;;;;;;;73.38;35.30;;;;;;;11.76;100.00;100466.78;1993716;28;20036;-77
2022/09/15 03:55:09;;;;;;;79.18;35.92;;;;;;;11.75;100.00;100465.13;1993822;28;20040;-77
2022/09/15 03:56:25;;;;;;;81.38;34.75;;;;;;;11.73;100.00;100464.34;1993566;28;20047;-77
2022/09/15 03:57:22;;;;;;;77.15;34.47;;;;;;;11.75;100.00;100466.88;1993937;28;20043;-77
2022/09/15 03:58:19;;;;;;;72.25;35.30;;;;;;;11.72;100.00;100473.13;1994146;28;20024;-78
2022/09/15 03:59:19;;;;;;;76.00;34.50;;;;;;;11.77;100.00;100471.09;1993643;28;20036;-76
2022/09/15 04:00:17;;;;;;;78.78;35.22;;;;;;;11.77;100.00;100465.03;1993445;28;20537;-76
2022/09/15 04:01:16;;;;;;;77.85;34.75;;;;;;;11.72;100.00;100465.28;1993562;28;20029;-78
2022/09/15 04:02:13;;;;;;;78.82;33.97;;;;;;;11.74;100.00;100459.97;1993611;28;20041;-78
2022/09/15 04:03:12;;;;;;;75.45;35.30;;;;;;;11.75;100.00;100465.13;1985391;28;20282;-78
2022/09/15 04:04:10;;;;;;;74.47;34.75;;;;;;;11.73;100.00;100459.13;1985285;28;20551;-80
2022/09/15 04:05:12;;;;;;;76.72;35.15;;;;;;;11.67;100.00;100462.06;1993205;28;20360;-78
2022/09/15 04:06:09;;;;;;;70.53;33.00;;;;;;;11.71;100.00;100468.81;1994136;28;20096;-78
2022/09/15 04:07:07;;;;;;;72.63;34.50;;;;;;;11.71;100.00;100458.38;1993550;28;20115;-79
2022/09/15 04:08:05;;;;;;;70.90;32.80;;;;;;;11.66;100.00;100471.66;1993370;28;20129;-78
2022/09/15 04:09:04;;;;;;;69.82;34.05;;;;;;;11.69;100.00;100460.19;1993722;28;20025;-78
2022/09/15 04:10:01;;;;;;;67.13;33.63;;;;;;;11.65;100.00;100458.69;1993454;28;20028;-77
2022/09/15 04:11:04;;;;;;;64.55;32.30;;;;;;;11.64;100.00;100464.84;1985569;28;20410;-78
2022/09/15 04:12:03;;;;;;;73.00;33.20;;;;;;;11.63;100.00;100463.97;1985051;28;20056;-78
2022/09/15 04:13:00;;;;;;;66.30;31.90;;;;;;;11.63;100.00;100460.53;1985250;28;20031;-78
2022/09/15 04:13:58;;;;;;;66.15;33.28;;;;;;;11.68;100.00;100468.97;1977340;28;20366;-77
2022/09/15 04:14:55;;;;;;;77.78;34.33;;;;;;;11.67;100.00;100468.13;1984322;28;20056;-78
2022/09/15 04:16:03;;;;;;;67.00;32.63;;;;;;;11.68;100.00;100463.75;1992759;28;20029;-79
2022/09/15 04:17:00;;;;;;;67.30;32.17;;;;;;;11.65;100.00;100470.00;1985108;28;20029;-78
2022/09/15 04:17:57;;;;;;;65.13;30.90;;;;;;;11.61;100.00;100475.44;1985358;28;20347;-78
2022/09/15 04:18:55;;;;;;;62.72;31.65;;;;;;;11.63;100.00;100477.06;1992696;28;20060;-79
2022/09/15 04:19:53;;;;;;;64.47;31.25;;;;;;;11.59;100.00;100468.53;1993631;28;20063;-79
2022/09/15 04:20:50;;;;;;;66.00;32.13;;;;;;;11.63;100.00;100471.81;1993538;28;20035;-78
2022/09/15 04:21:47;;;;;;;66.13;32.10;;;;;;;11.65;100.00;100463.91;1985153;28;20067;-77
2022/09/15 04:22:45;;;;;;;60.75;31.15;;;;;;;11.67;100.00;100467.28;1985168;28;20459;-78
2022/09/15 04:23:44;;;;;;;67.43;32.08;;;;;;;11.66;100.00;100468.19;1992820;28;20034;-80
2022/09/15 04:24:42;;;;;;;63.63;32.20;;;;;;;11.66;100.00;100465.59;1993270;28;20024;-78
2022/09/15 04:25:40;;;;;;;62.67;30.75;;;;;;;11.65;100.00;100463.91;1993532;28;20024;-78
2022/09/15 04:26:38;;;;;;;66.57;30.88;;;;;;;11.68;100.00;100468.97;1993387;28;20426;-79
2022/09/15 04:27:37;;;;;;;66.55;32.03;;;;;;;11.65;100.00;100459.53;1993630;28;20180;-80
2022/09/15 04:28:37;;;;;;;60.25;31.17;;;;;;;11.66;100.00;100461.22;1993657;28;20034;-78
2022/09/15 04:29:34;;;;;;;61.97;31.20;;;;;;;11.67;100.00;100467.28;1993837;28;20097;-78
2022/09/15 04:30:31;;;;;;;60.85;29.73;;;;;;;11.69;100.00;100465.44;1993694;28;20093;-77
2022/09/15 04:31:30;;;;;;;55.78;30.20;;;;;;;11.66;100.00;100463.81;1984726;28;20055;-77
2022/09/15 04:32:28;;;;;;;60.33;30.80;;;;;;;11.67;100.00;100469.91;1985177;28;20388;-76
2022/09/15 04:33:25;;;;;;;57.88;30.17;;;;;;;11.67;100.00;100464.69;1984377;28;20047;-77
2022/09/15 04:34:23;;;;;;;60.28;30.45;;;;;;;11.65;100.00;100474.34;1985182;28;20052;-80
2022/09/15 04:35:21;;;;;;;58.40;30.15;;;;;;;11.65;100.00;100463.91;1992494;28;20036;-77
2022/09/15 04:36:23;;;;;;;61.50;31.17;;;;;;;11.66;100.00;100465.59;1993791;28;20460;-79
2022/09/15 04:37:22;;;;;;;60.20;29.33;;;;;;;11.70;100.00;100456.66;1993398;28;20520;-78
2022/09/15 04:38:19;;;;;;;63.88;31.42;;;;;;;11.67;100.00;100464.69;1993397;28;20032;-77
2022/09/15 04:39:16;;;;;;;58.25;30.20;;;;;;;11.73;100.00;100466.94;1993190;28;20033;-78
2022/09/15 04:40:14;;;;;;;51.85;29.77;;;;;;;11.74;100.00;100458.22;1993626;28;20032;-77
2022/09/15 04:41:13;;;;;;;61.40;29.98;;;;;;;11.69;100.00;100460.19;1993353;28;20028;-78